sensor_id;sensor_type;location;lat;lon;timestamp;temperature;humidity
17887;DHT22;9069;52.044;7.472;2023-04-03T00:00:18;7.40;93.80
17887;DHT22;9069;52.044;7.472;2023-04-03T00:02:45;7.40;93.70
17887;DHT22;9069;52.044;7.472;2023-04-03T00:05:12;7.40;93.80
17887;DHT22;9069;52.044;7.472;2023-04-03T00:07:39;7.40;93.80
17887;DHT22;9069;52.044;7.472;2023-04-03T00:10:06;7.30;93.80
17887;DHT22;9069;52.044;7.472;2023-04-03T00:12:33;7.30;93.80
17887;DHT22;9069;52.044;7.472;2023-04-03T00:14:59;7.30;93.80
17887;DHT22;9069;52.044;7.472;2023-04-03T00:17:26;7.30;93.90
17887;DHT22;9069;52.044;7.472;2023-04-03T00:19:53;7.20;93.80
17887;DHT22;9069;52.044;7.472;2023-04-03T00:22:20;7.20;93.80
17887;DHT22;9069;52.044;7.472;2023-04-03T00:24:46;7.20;93.80
17887;DHT22;9069;52.044;7.472;2023-04-03T00:27:13;7.10;93.80
17887;DHT22;9069;52.044;7.472;2023-04-03T00:29:40;7.10;93.90
17887;DHT22;9069;52.044;7.472;2023-04-03T00:32:06;7.10;93.90
17887;DHT22;9069;52.044;7.472;2023-04-03T00:34:33;7.10;93.90
17887;DHT22;9069;52.044;7.472;2023-04-03T00:37:00;7.00;94.00
17887;DHT22;9069;52.044;7.472;2023-04-03T00:39:27;7.00;94.00
17887;DHT22;9069;52.044;7.472;2023-04-03T00:41:54;7.00;94.00
17887;DHT22;9069;52.044;7.472;2023-04-03T00:47:00;6.90;93.20
17887;DHT22;9069;52.044;7.472;2023-04-03T00:49:28;6.90;93.80
17887;DHT22;9069;52.044;7.472;2023-04-03T00:51:55;6.90;93.80
17887;DHT22;9069;52.044;7.472;2023-04-03T00:54:23;6.80;93.80
17887;DHT22;9069;52.044;7.472;2023-04-03T00:56:51;6.80;93.90
17887;DHT22;9069;52.044;7.472;2023-04-03T00:59:23;6.80;93.70
17887;DHT22;9069;52.044;7.472;2023-04-03T01:01:57;6.70;93.60
17887;DHT22;9069;52.044;7.472;2023-04-03T01:04:35;6.70;93.80
17887;DHT22;9069;52.044;7.472;2023-04-03T01:07:25;6.70;93.50
17887;DHT22;9069;52.044;7.472;2023-04-03T01:09:57;6.60;93.00
17887;DHT22;9069;52.044;7.472;2023-04-03T01:12:30;6.60;93.50
17887;DHT22;9069;52.044;7.472;2023-04-03T01:15:01;6.60;93.50
17887;DHT22;9069;52.044;7.472;2023-04-03T01:20:21;6.50;93.80
17887;DHT22;9069;52.044;7.472;2023-04-03T01:25:20;6.50;94.00
17887;DHT22;9069;52.044;7.472;2023-04-03T01:27:48;6.40;93.90
17887;DHT22;9069;52.044;7.472;2023-04-03T01:30:17;6.40;93.80
17887;DHT22;9069;52.044;7.472;2023-04-03T01:32:45;6.40;93.60
17887;DHT22;9069;52.044;7.472;2023-04-03T01:35:13;6.40;93.80
17887;DHT22;9069;52.044;7.472;2023-04-03T01:37:39;6.30;93.80
17887;DHT22;9069;52.044;7.472;2023-04-03T01:40:06;6.30;93.90
17887;DHT22;9069;52.044;7.472;2023-04-03T01:42:34;6.30;93.90
17887;DHT22;9069;52.044;7.472;2023-04-03T01:45:01;6.30;93.90
17887;DHT22;9069;52.044;7.472;2023-04-03T01:47:28;6.20;93.90
17887;DHT22;9069;52.044;7.472;2023-04-03T01:49:55;6.20;93.90
17887;DHT22;9069;52.044;7.472;2023-04-03T01:52:22;6.20;93.90
17887;DHT22;9069;52.044;7.472;2023-04-03T01:54:50;6.10;93.90
17887;DHT22;9069;52.044;7.472;2023-04-03T01:57:17;6.10;93.80
17887;DHT22;9069;52.044;7.472;2023-04-03T01:59:44;6.10;93.70
17887;DHT22;9069;52.044;7.472;2023-04-03T02:02:10;6.10;93.70
17887;DHT22;9069;52.044;7.472;2023-04-03T02:04:39;6.10;93.80
17887;DHT22;9069;52.044;7.472;2023-04-03T02:07:06;6.00;93.80
17887;DHT22;9069;52.044;7.472;2023-04-03T02:09:33;6.00;93.70
17887;DHT22;9069;52.044;7.472;2023-04-03T02:11:59;6.00;93.80
17887;DHT22;9069;52.044;7.472;2023-04-03T02:14:26;5.90;93.80
17887;DHT22;9069;52.044;7.472;2023-04-03T02:16:54;5.90;93.80
17887;DHT22;9069;52.044;7.472;2023-04-03T02:19:22;5.90;93.80
17887;DHT22;9069;52.044;7.472;2023-04-03T02:21:49;5.80;93.80
17887;DHT22;9069;52.044;7.472;2023-04-03T02:24:15;5.80;93.90
17887;DHT22;9069;52.044;7.472;2023-04-03T02:26:42;5.80;93.90
17887;DHT22;9069;52.044;7.472;2023-04-03T02:29:09;5.70;94.00
17887;DHT22;9069;52.044;7.472;2023-04-03T02:31:35;5.70;94.00
17887;DHT22;9069;52.044;7.472;2023-04-03T02:34:03;5.70;94.00
17887;DHT22;9069;52.044;7.472;2023-04-03T02:36:30;5.70;94.10
17887;DHT22;9069;52.044;7.472;2023-04-03T02:39:02;5.70;94.10
17887;DHT22;9069;52.044;7.472;2023-04-03T02:41:30;5.60;94.10
17887;DHT22;9069;52.044;7.472;2023-04-03T02:44:06;5.60;94.20
17887;DHT22;9069;52.044;7.472;2023-04-03T02:46:33;5.60;94.10
17887;DHT22;9069;52.044;7.472;2023-04-03T02:48:59;5.60;94.20
17887;DHT22;9069;52.044;7.472;2023-04-03T02:51:26;5.50;94.20
17887;DHT22;9069;52.044;7.472;2023-04-03T02:53:53;5.50;94.20
17887;DHT22;9069;52.044;7.472;2023-04-03T02:56:24;5.50;94.20
17887;DHT22;9069;52.044;7.472;2023-04-03T02:58:51;5.50;94.30
17887;DHT22;9069;52.044;7.472;2023-04-03T03:01:19;5.40;94.30
17887;DHT22;9069;52.044;7.472;2023-04-03T03:03:46;5.40;94.30
17887;DHT22;9069;52.044;7.472;2023-04-03T03:06:16;5.40;94.40
17887;DHT22;9069;52.044;7.472;2023-04-03T03:08:43;5.30;94.30
17887;DHT22;9069;52.044;7.472;2023-04-03T03:11:09;5.30;94.40
17887;DHT22;9069;52.044;7.472;2023-04-03T03:13:37;5.30;94.50
17887;DHT22;9069;52.044;7.472;2023-04-03T03:16:04;5.20;94.50
17887;DHT22;9069;52.044;7.472;2023-04-03T03:18:31;5.20;94.50
17887;DHT22;9069;52.044;7.472;2023-04-03T03:20:59;5.20;94.50
17887;DHT22;9069;52.044;7.472;2023-04-03T03:23:28;5.20;94.50
17887;DHT22;9069;52.044;7.472;2023-04-03T03:26:06;5.20;94.70
17887;DHT22;9069;52.044;7.472;2023-04-03T03:28:35;5.10;94.40
17887;DHT22;9069;52.044;7.472;2023-04-03T03:31:04;5.10;94.70
17887;DHT22;9069;52.044;7.472;2023-04-03T03:33:32;5.10;94.80
17887;DHT22;9069;52.044;7.472;2023-04-03T03:36:00;5.10;94.80
17887;DHT22;9069;52.044;7.472;2023-04-03T03:38:27;5.00;94.80
17887;DHT22;9069;52.044;7.472;2023-04-03T03:40:54;5.00;94.80
17887;DHT22;9069;52.044;7.472;2023-04-03T03:43:22;5.00;94.80
17887;DHT22;9069;52.044;7.472;2023-04-03T03:45:52;5.00;94.90
17887;DHT22;9069;52.044;7.472;2023-04-03T03:48:20;5.00;94.90
17887;DHT22;9069;52.044;7.472;2023-04-03T03:50:47;5.00;95.00
17887;DHT22;9069;52.044;7.472;2023-04-03T03:53:14;4.90;95.00
17887;DHT22;9069;52.044;7.472;2023-04-03T03:55:42;4.90;95.00
17887;DHT22;9069;52.044;7.472;2023-04-03T03:58:09;4.90;95.00
17887;DHT22;9069;52.044;7.472;2023-04-03T04:00:36;4.90;95.00
17887;DHT22;9069;52.044;7.472;2023-04-03T04:03:03;4.90;95.00
17887;DHT22;9069;52.044;7.472;2023-04-03T04:05:31;4.80;95.00
17887;DHT22;9069;52.044;7.472;2023-04-03T04:08:00;4.80;95.00
17887;DHT22;9069;52.044;7.472;2023-04-03T04:10:27;4.80;95.10
17887;DHT22;9069;52.044;7.472;2023-04-03T04:12:54;4.80;95.10
17887;DHT22;9069;52.044;7.472;2023-04-03T04:15:25;4.80;95.10
17887;DHT22;9069;52.044;7.472;2023-04-03T04:17:54;4.70;95.00
17887;DHT22;9069;52.044;7.472;2023-04-03T04:20:22;4.70;95.00
17887;DHT22;9069;52.044;7.472;2023-04-03T04:22:49;4.70;95.10
17887;DHT22;9069;52.044;7.472;2023-04-03T04:25:18;4.70;95.10
17887;DHT22;9069;52.044;7.472;2023-04-03T04:27:45;4.60;95.10
17887;DHT22;9069;52.044;7.472;2023-04-03T04:30:14;4.60;95.20
17887;DHT22;9069;52.044;7.472;2023-04-03T04:32:41;4.60;95.20
17887;DHT22;9069;52.044;7.472;2023-04-03T04:35:08;4.60;95.20
17887;DHT22;9069;52.044;7.472;2023-04-03T04:37:39;4.60;95.20
17887;DHT22;9069;52.044;7.472;2023-04-03T04:40:07;4.60;95.30
17887;DHT22;9069;52.044;7.472;2023-04-03T04:42:34;4.50;95.30
17887;DHT22;9069;52.044;7.472;2023-04-03T04:45:01;4.50;95.40
17887;DHT22;9069;52.044;7.472;2023-04-03T04:47:29;4.50;95.40
17887;DHT22;9069;52.044;7.472;2023-04-03T04:49:56;4.50;95.50
17887;DHT22;9069;52.044;7.472;2023-04-03T04:52:23;4.50;95.60
17887;DHT22;9069;52.044;7.472;2023-04-03T04:54:50;4.40;95.60
17887;DHT22;9069;52.044;7.472;2023-04-03T04:57:17;4.40;95.60
17887;DHT22;9069;52.044;7.472;2023-04-03T04:59:45;4.40;95.60
17887;DHT22;9069;52.044;7.472;2023-04-03T05:02:12;4.40;95.60
17887;DHT22;9069;52.044;7.472;2023-04-03T05:04:41;4.40;95.60
17887;DHT22;9069;52.044;7.472;2023-04-03T05:07:14;4.40;95.60
17887;DHT22;9069;52.044;7.472;2023-04-03T05:09:41;4.40;95.60
17887;DHT22;9069;52.044;7.472;2023-04-03T05:12:09;4.30;95.70
17887;DHT22;9069;52.044;7.472;2023-04-03T05:14:42;4.30;95.80
17887;DHT22;9069;52.044;7.472;2023-04-03T05:17:10;4.30;95.80
17887;DHT22;9069;52.044;7.472;2023-04-03T05:19:40;4.30;95.90
17887;DHT22;9069;52.044;7.472;2023-04-03T05:22:08;4.40;96.00
17887;DHT22;9069;52.044;7.472;2023-04-03T05:24:35;4.30;96.00
17887;DHT22;9069;52.044;7.472;2023-04-03T05:27:03;4.20;96.10
17887;DHT22;9069;52.044;7.472;2023-04-03T05:29:33;4.20;96.10
17887;DHT22;9069;52.044;7.472;2023-04-03T05:32:01;4.20;96.20
17887;DHT22;9069;52.044;7.472;2023-04-03T05:34:28;4.20;96.20
17887;DHT22;9069;52.044;7.472;2023-04-03T05:36:55;4.20;96.20
17887;DHT22;9069;52.044;7.472;2023-04-03T05:39:23;4.20;96.30
17887;DHT22;9069;52.044;7.472;2023-04-03T05:41:50;4.20;96.20
17887;DHT22;9069;52.044;7.472;2023-04-03T05:44:17;4.20;96.30
17887;DHT22;9069;52.044;7.472;2023-04-03T05:46:46;4.20;96.30
17887;DHT22;9069;52.044;7.472;2023-04-03T05:49:13;4.10;96.30
17887;DHT22;9069;52.044;7.472;2023-04-03T05:51:40;4.20;96.30
17887;DHT22;9069;52.044;7.472;2023-04-03T05:54:19;4.10;96.40
17887;DHT22;9069;52.044;7.472;2023-04-03T05:56:47;4.10;96.40
17887;DHT22;9069;52.044;7.472;2023-04-03T05:59:14;4.10;96.50
17887;DHT22;9069;52.044;7.472;2023-04-03T06:01:41;4.10;96.60
17887;DHT22;9069;52.044;7.472;2023-04-03T06:04:08;4.10;96.60
17887;DHT22;9069;52.044;7.472;2023-04-03T06:09:15;4.10;96.30
17887;DHT22;9069;52.044;7.472;2023-04-03T06:11:43;4.10;96.70
17887;DHT22;9069;52.044;7.472;2023-04-03T06:14:11;4.10;96.80
17887;DHT22;9069;52.044;7.472;2023-04-03T06:16:37;4.20;96.90
17887;DHT22;9069;52.044;7.472;2023-04-03T06:19:10;4.20;96.90
17887;DHT22;9069;52.044;7.472;2023-04-03T06:21:41;4.20;96.80
17887;DHT22;9069;52.044;7.472;2023-04-03T06:24:11;4.30;97.00
17887;DHT22;9069;52.044;7.472;2023-04-03T06:26:38;4.30;96.90
17887;DHT22;9069;52.044;7.472;2023-04-03T06:29:05;4.30;96.80
17887;DHT22;9069;52.044;7.472;2023-04-03T06:31:32;4.40;97.00
17887;DHT22;9069;52.044;7.472;2023-04-03T06:33:58;4.40;96.90
17887;DHT22;9069;52.044;7.472;2023-04-03T06:36:25;4.50;97.10
17887;DHT22;9069;52.044;7.472;2023-04-03T06:38:52;4.50;97.00
17887;DHT22;9069;52.044;7.472;2023-04-03T06:41:19;4.60;97.10
17887;DHT22;9069;52.044;7.472;2023-04-03T06:43:45;4.70;97.20
17887;DHT22;9069;52.044;7.472;2023-04-03T06:46:17;4.80;97.40
17887;DHT22;9069;52.044;7.472;2023-04-03T06:48:44;4.90;97.30
17887;DHT22;9069;52.044;7.472;2023-04-03T06:53:44;5.30;97.10
17887;DHT22;9069;52.044;7.472;2023-04-03T06:56:11;5.50;97.40
17887;DHT22;9069;52.044;7.472;2023-04-03T06:58:38;5.70;97.30
17887;DHT22;9069;52.044;7.472;2023-04-03T07:01:05;5.80;97.20
17887;DHT22;9069;52.044;7.472;2023-04-03T07:03:31;6.00;97.00
17887;DHT22;9069;52.044;7.472;2023-04-03T07:06:00;6.30;96.70
17887;DHT22;9069;52.044;7.472;2023-04-03T07:08:27;6.40;96.80
17887;DHT22;9069;52.044;7.472;2023-04-03T07:10:55;6.70;97.10
17887;DHT22;9069;52.044;7.472;2023-04-03T07:13:21;6.90;97.00
17887;DHT22;9069;52.044;7.472;2023-04-03T07:15:48;7.10;97.10
17887;DHT22;9069;52.044;7.472;2023-04-03T07:18:15;7.40;97.00
17887;DHT22;9069;52.044;7.472;2023-04-03T07:20:43;7.70;96.70
17887;DHT22;9069;52.044;7.472;2023-04-03T07:23:10;8.00;96.00
17887;DHT22;9069;52.044;7.472;2023-04-03T07:25:42;8.30;95.60
17887;DHT22;9069;52.044;7.472;2023-04-03T07:28:09;8.70;94.30
17887;DHT22;9069;52.044;7.472;2023-04-03T07:30:44;9.00;95.80
17887;DHT22;9069;52.044;7.472;2023-04-03T07:33:14;9.30;92.30
17887;DHT22;9069;52.044;7.472;2023-04-03T07:35:41;9.60;93.60
17887;DHT22;9069;52.044;7.472;2023-04-03T07:38:09;9.90;93.40
17887;DHT22;9069;52.044;7.472;2023-04-03T07:40:36;10.20;93.80
17887;DHT22;9069;52.044;7.472;2023-04-03T07:43:04;10.50;93.50
17887;DHT22;9069;52.044;7.472;2023-04-03T07:45:34;10.80;93.70
17887;DHT22;9069;52.044;7.472;2023-04-03T07:48:01;11.10;93.00
17887;DHT22;9069;52.044;7.472;2023-04-03T07:50:28;11.40;92.00
17887;DHT22;9069;52.044;7.472;2023-04-03T07:52:56;11.60;89.00
17887;DHT22;9069;52.044;7.472;2023-04-03T07:55:24;11.80;89.80
17887;DHT22;9069;52.044;7.472;2023-04-03T07:57:51;12.00;87.10
17887;DHT22;9069;52.044;7.472;2023-04-03T08:00:18;12.20;85.60
17887;DHT22;9069;52.044;7.472;2023-04-03T08:02:46;12.40;84.90
17887;DHT22;9069;52.044;7.472;2023-04-03T08:05:20;12.60;85.40
17887;DHT22;9069;52.044;7.472;2023-04-03T08:07:47;12.80;81.90
17887;DHT22;9069;52.044;7.472;2023-04-03T08:10:15;12.90;80.00
17887;DHT22;9069;52.044;7.472;2023-04-03T08:12:41;13.10;79.00
17887;DHT22;9069;52.044;7.472;2023-04-03T08:15:09;13.30;80.40
17887;DHT22;9069;52.044;7.472;2023-04-03T08:17:36;13.50;78.00
17887;DHT22;9069;52.044;7.472;2023-04-03T08:20:04;13.70;78.30
17887;DHT22;9069;52.044;7.472;2023-04-03T08:22:33;13.80;73.60
17887;DHT22;9069;52.044;7.472;2023-04-03T08:25:00;14.00;72.90
17887;DHT22;9069;52.044;7.472;2023-04-03T08:27:28;14.20;72.90
17887;DHT22;9069;52.044;7.472;2023-04-03T08:29:56;14.40;73.30
17887;DHT22;9069;52.044;7.472;2023-04-03T08:32:24;14.50;72.80
17887;DHT22;9069;52.044;7.472;2023-04-03T08:34:50;14.70;71.10
17887;DHT22;9069;52.044;7.472;2023-04-03T08:37:17;14.90;71.90
17887;DHT22;9069;52.044;7.472;2023-04-03T08:39:44;15.10;73.30
17887;DHT22;9069;52.044;7.472;2023-04-03T08:42:40;15.30;71.40
17887;DHT22;9069;52.044;7.472;2023-04-03T08:45:12;15.50;68.30
17887;DHT22;9069;52.044;7.472;2023-04-03T08:50:19;15.80;66.90
17887;DHT22;9069;52.044;7.472;2023-04-03T08:52:51;15.90;66.00
17887;DHT22;9069;52.044;7.472;2023-04-03T08:57:49;16.10;62.70
17887;DHT22;9069;52.044;7.472;2023-04-03T09:00:21;16.20;62.80
17887;DHT22;9069;52.044;7.472;2023-04-03T09:02:52;16.20;60.10
17887;DHT22;9069;52.044;7.472;2023-04-03T09:05:24;16.20;61.20
17887;DHT22;9069;52.044;7.472;2023-04-03T09:10:37;16.10;58.70
17887;DHT22;9069;52.044;7.472;2023-04-03T09:15:54;16.00;59.50
17887;DHT22;9069;52.044;7.472;2023-04-03T09:18:27;15.90;61.70
17887;DHT22;9069;52.044;7.472;2023-04-03T09:21:08;15.90;60.80
17887;DHT22;9069;52.044;7.472;2023-04-03T09:23:50;15.80;58.10
17887;DHT22;9069;52.044;7.472;2023-04-03T09:26:42;15.80;59.80
17887;DHT22;9069;52.044;7.472;2023-04-03T09:29:07;15.80;61.80
17887;DHT22;9069;52.044;7.472;2023-04-03T09:31:43;15.90;61.40
17887;DHT22;9069;52.044;7.472;2023-04-03T09:34:21;15.90;60.40
17887;DHT22;9069;52.044;7.472;2023-04-03T09:36:50;16.00;60.50
17887;DHT22;9069;52.044;7.472;2023-04-03T09:39:20;16.00;62.00
17887;DHT22;9069;52.044;7.472;2023-04-03T09:42:33;16.10;61.90
17887;DHT22;9069;52.044;7.472;2023-04-03T09:45:20;16.20;57.40
17887;DHT22;9069;52.044;7.472;2023-04-03T09:47:48;16.30;61.10
17887;DHT22;9069;52.044;7.472;2023-04-03T09:50:20;16.30;59.80
17887;DHT22;9069;52.044;7.472;2023-04-03T09:52:51;16.40;60.00
17887;DHT22;9069;52.044;7.472;2023-04-03T09:55:26;16.40;58.90
17887;DHT22;9069;52.044;7.472;2023-04-03T09:57:55;16.50;58.90
17887;DHT22;9069;52.044;7.472;2023-04-03T10:00:37;16.60;61.10
17887;DHT22;9069;52.044;7.472;2023-04-03T10:03:08;16.60;59.70
17887;DHT22;9069;52.044;7.472;2023-04-03T10:05:49;16.80;61.40
17887;DHT22;9069;52.044;7.472;2023-04-03T10:10:46;17.10;64.30
17887;DHT22;9069;52.044;7.472;2023-04-03T10:13:19;17.30;61.40
17887;DHT22;9069;52.044;7.472;2023-04-03T10:15:56;17.60;58.60
17887;DHT22;9069;52.044;7.472;2023-04-03T10:18:49;17.70;57.10
17887;DHT22;9069;52.044;7.472;2023-04-03T10:34:40;18.10;55.00
17887;DHT22;9069;52.044;7.472;2023-04-03T10:37:24;18.00;55.70
17887;DHT22;9069;52.044;7.472;2023-04-03T10:48:00;17.40;53.90
17887;DHT22;9069;52.044;7.472;2023-04-03T10:58:06;16.20;52.70
17887;DHT22;9069;52.044;7.472;2023-04-03T11:00:40;15.90;53.00
17887;DHT22;9069;52.044;7.472;2023-04-03T11:03:36;15.60;52.70
17887;DHT22;9069;52.044;7.472;2023-04-03T11:06:02;15.20;52.30
17887;DHT22;9069;52.044;7.472;2023-04-03T11:08:39;14.90;54.00
17887;DHT22;9069;52.044;7.472;2023-04-03T11:11:40;14.50;54.60
17887;DHT22;9069;52.044;7.472;2023-04-03T11:14:33;14.20;53.40
17887;DHT22;9069;52.044;7.472;2023-04-03T11:22:41;13.40;55.00
17887;DHT22;9069;52.044;7.472;2023-04-03T11:27:46;13.00;56.50
17887;DHT22;9069;52.044;7.472;2023-04-03T11:30:20;12.90;55.80
17887;DHT22;9069;52.044;7.472;2023-04-03T11:34:15;12.70;55.70
17887;DHT22;9069;52.044;7.472;2023-04-03T11:36:12;12.60;54.60
17887;DHT22;9069;52.044;7.472;2023-04-03T11:39:07;12.40;56.20
17887;DHT22;9069;52.044;7.472;2023-04-03T11:41:36;12.30;57.00
17887;DHT22;9069;52.044;7.472;2023-04-03T11:44:26;12.10;57.80
17887;DHT22;9069;52.044;7.472;2023-04-03T11:46:53;12.10;58.60
17887;DHT22;9069;52.044;7.472;2023-04-03T11:49:59;12.00;57.80
17887;DHT22;9069;52.044;7.472;2023-04-03T12:13:36;11.50;60.50
17887;DHT22;9069;52.044;7.472;2023-04-03T12:16:05;11.50;62.20
17887;DHT22;9069;52.044;7.472;2023-04-03T12:45:51;11.50;60.80
17887;DHT22;9069;52.044;7.472;2023-04-03T12:48:25;11.50;60.10
17887;DHT22;9069;52.044;7.472;2023-04-03T12:50:53;11.50;61.40
17887;DHT22;9069;52.044;7.472;2023-04-03T12:53:26;11.50;60.60
17887;DHT22;9069;52.044;7.472;2023-04-03T12:55:59;11.50;60.00
17887;DHT22;9069;52.044;7.472;2023-04-03T12:58:44;11.50;60.30
17887;DHT22;9069;52.044;7.472;2023-04-03T13:01:14;11.40;60.70
17887;DHT22;9069;52.044;7.472;2023-04-03T13:03:45;11.40;59.90
17887;DHT22;9069;52.044;7.472;2023-04-03T13:06:18;11.40;59.40
17887;DHT22;9069;52.044;7.472;2023-04-03T13:08:57;11.40;59.50
17887;DHT22;9069;52.044;7.472;2023-04-03T13:11:27;11.30;59.80
17887;DHT22;9069;52.044;7.472;2023-04-03T13:14:01;11.30;61.30
17887;DHT22;9069;52.044;7.472;2023-04-03T13:16:32;11.30;62.20
17887;DHT22;9069;52.044;7.472;2023-04-03T13:19:00;11.30;61.60
17887;DHT22;9069;52.044;7.472;2023-04-03T13:21:32;11.30;61.50
17887;DHT22;9069;52.044;7.472;2023-04-03T13:24:01;11.30;60.80
17887;DHT22;9069;52.044;7.472;2023-04-03T13:26:41;11.30;61.10
17887;DHT22;9069;52.044;7.472;2023-04-03T13:29:24;11.30;61.20
17887;DHT22;9069;52.044;7.472;2023-04-03T13:31:58;11.30;61.10
17887;DHT22;9069;52.044;7.472;2023-04-03T13:34:28;11.20;62.00
17887;DHT22;9069;52.044;7.472;2023-04-03T13:36:58;11.30;61.30
17887;DHT22;9069;52.044;7.472;2023-04-03T13:39:29;11.20;62.70
17887;DHT22;9069;52.044;7.472;2023-04-03T13:41:59;11.30;61.90
17887;DHT22;9069;52.044;7.472;2023-04-03T13:44:30;11.30;62.60
17887;DHT22;9069;52.044;7.472;2023-04-03T13:47:20;11.30;62.10
17887;DHT22;9069;52.044;7.472;2023-04-03T13:50:13;11.30;60.10
17887;DHT22;9069;52.044;7.472;2023-04-03T13:52:51;11.30;60.40
17887;DHT22;9069;52.044;7.472;2023-04-03T13:55:22;11.30;61.70
17887;DHT22;9069;52.044;7.472;2023-04-03T13:58:01;11.40;62.30
17887;DHT22;9069;52.044;7.472;2023-04-03T14:03:22;11.40;62.70
17887;DHT22;9069;52.044;7.472;2023-04-03T14:05:49;11.50;61.50
17887;DHT22;9069;52.044;7.472;2023-04-03T14:08:17;11.50;62.20
17887;DHT22;9069;52.044;7.472;2023-04-03T14:10:52;11.50;62.20
17887;DHT22;9069;52.044;7.472;2023-04-03T14:13:20;11.60;62.40
17887;DHT22;9069;52.044;7.472;2023-04-03T14:15:47;11.50;62.20
17887;DHT22;9069;52.044;7.472;2023-04-03T14:18:17;11.50;62.30
17887;DHT22;9069;52.044;7.472;2023-04-03T14:20:44;11.50;61.90
17887;DHT22;9069;52.044;7.472;2023-04-03T14:23:11;11.50;62.10
17887;DHT22;9069;52.044;7.472;2023-04-03T14:25:39;11.50;62.30
17887;DHT22;9069;52.044;7.472;2023-04-03T14:28:20;11.40;61.80
17887;DHT22;9069;52.044;7.472;2023-04-03T14:30:50;11.40;61.80
17887;DHT22;9069;52.044;7.472;2023-04-03T14:33:20;11.30;61.60
17887;DHT22;9069;52.044;7.472;2023-04-03T14:35:47;11.30;60.90
17887;DHT22;9069;52.044;7.472;2023-04-03T14:38:25;11.30;61.60
17887;DHT22;9069;52.044;7.472;2023-04-03T14:40:53;11.30;60.80
17887;DHT22;9069;52.044;7.472;2023-04-03T14:43:24;11.30;62.10
17887;DHT22;9069;52.044;7.472;2023-04-03T14:45:53;11.20;61.30
17887;DHT22;9069;52.044;7.472;2023-04-03T14:48:22;11.20;61.00
17887;DHT22;9069;52.044;7.472;2023-04-03T14:50:51;11.20;61.30
17887;DHT22;9069;52.044;7.472;2023-04-03T14:53:32;11.20;60.70
17887;DHT22;9069;52.044;7.472;2023-04-03T14:56:12;11.20;62.00
17887;DHT22;9069;52.044;7.472;2023-04-03T14:58:39;11.10;61.60
17887;DHT22;9069;52.044;7.472;2023-04-03T15:01:06;11.10;62.30
17887;DHT22;9069;52.044;7.472;2023-04-03T15:03:33;11.10;62.10
17887;DHT22;9069;52.044;7.472;2023-04-03T15:06:00;11.10;62.40
17887;DHT22;9069;52.044;7.472;2023-04-03T15:08:27;11.10;61.70
17887;DHT22;9069;52.044;7.472;2023-04-03T15:10:58;11.10;61.90
17887;DHT22;9069;52.044;7.472;2023-04-03T15:13:25;11.10;61.00
17887;DHT22;9069;52.044;7.472;2023-04-03T15:15:52;11.10;61.30
17887;DHT22;9069;52.044;7.472;2023-04-03T15:18:24;11.10;61.20
17887;DHT22;9069;52.044;7.472;2023-04-03T15:20:56;11.00;61.10
17887;DHT22;9069;52.044;7.472;2023-04-03T15:23:23;11.00;61.50
17887;DHT22;9069;52.044;7.472;2023-04-03T15:25:55;11.00;62.10
17887;DHT22;9069;52.044;7.472;2023-04-03T15:30:53;10.90;60.90
17887;DHT22;9069;52.044;7.472;2023-04-03T15:33:20;10.90;60.90
17887;DHT22;9069;52.044;7.472;2023-04-03T15:35:47;10.90;61.50
17887;DHT22;9069;52.044;7.472;2023-04-03T15:38:14;10.90;61.70
17887;DHT22;9069;52.044;7.472;2023-04-03T15:40:41;10.90;60.80
17887;DHT22;9069;52.044;7.472;2023-04-03T15:43:09;10.90;60.80
17887;DHT22;9069;52.044;7.472;2023-04-03T15:45:36;10.90;61.20
17887;DHT22;9069;52.044;7.472;2023-04-03T15:48:05;10.90;61.20
17887;DHT22;9069;52.044;7.472;2023-04-03T15:50:33;10.90;62.20
17887;DHT22;9069;52.044;7.472;2023-04-03T15:53:01;10.90;61.70
17887;DHT22;9069;52.044;7.472;2023-04-03T15:55:30;10.90;62.00
17887;DHT22;9069;52.044;7.472;2023-04-03T15:57:58;11.00;62.20
17887;DHT22;9069;52.044;7.472;2023-04-03T16:00:25;11.00;61.60
17887;DHT22;9069;52.044;7.472;2023-04-03T16:02:56;11.00;62.10
17887;DHT22;9069;52.044;7.472;2023-04-03T16:05:24;11.00;61.70
17887;DHT22;9069;52.044;7.472;2023-04-03T16:07:51;11.00;62.50
17887;DHT22;9069;52.044;7.472;2023-04-03T16:10:18;11.00;62.80
17887;DHT22;9069;52.044;7.472;2023-04-03T16:12:45;11.00;62.80
17887;DHT22;9069;52.044;7.472;2023-04-03T16:15:13;11.00;62.70
17887;DHT22;9069;52.044;7.472;2023-04-03T16:17:40;11.00;62.50
17887;DHT22;9069;52.044;7.472;2023-04-03T16:20:09;10.90;62.60
17887;DHT22;9069;52.044;7.472;2023-04-03T16:22:37;10.90;61.80
17887;DHT22;9069;52.044;7.472;2023-04-03T16:25:06;10.90;61.70
17887;DHT22;9069;52.044;7.472;2023-04-03T16:27:33;10.90;61.90
17887;DHT22;9069;52.044;7.472;2023-04-03T16:30:00;10.90;61.50
17887;DHT22;9069;52.044;7.472;2023-04-03T16:32:29;10.90;62.00
17887;DHT22;9069;52.044;7.472;2023-04-03T16:34:57;10.90;62.00
17887;DHT22;9069;52.044;7.472;2023-04-03T16:37:24;10.90;61.90
17887;DHT22;9069;52.044;7.472;2023-04-03T16:39:54;10.80;62.70
17887;DHT22;9069;52.044;7.472;2023-04-03T16:42:21;10.80;62.20
17887;DHT22;9069;52.044;7.472;2023-04-03T16:44:47;10.80;62.20
17887;DHT22;9069;52.044;7.472;2023-04-03T16:47:14;10.80;62.80
17887;DHT22;9069;52.044;7.472;2023-04-03T16:49:43;10.80;63.20
17887;DHT22;9069;52.044;7.472;2023-04-03T16:52:10;10.80;63.30
17887;DHT22;9069;52.044;7.472;2023-04-03T16:54:37;10.80;63.40
17887;DHT22;9069;52.044;7.472;2023-04-03T16:57:03;10.80;63.60
17887;DHT22;9069;52.044;7.472;2023-04-03T16:59:30;10.80;63.50
17887;DHT22;9069;52.044;7.472;2023-04-03T17:01:57;10.80;63.40
17887;DHT22;9069;52.044;7.472;2023-04-03T17:04:23;10.80;63.20
17887;DHT22;9069;52.044;7.472;2023-04-03T17:06:50;10.80;63.30
17887;DHT22;9069;52.044;7.472;2023-04-03T17:09:18;10.80;63.20
17887;DHT22;9069;52.044;7.472;2023-04-03T17:11:49;10.80;62.40
17887;DHT22;9069;52.044;7.472;2023-04-03T17:14:16;10.70;61.90
17887;DHT22;9069;52.044;7.472;2023-04-03T17:16:43;10.70;62.80
17887;DHT22;9069;52.044;7.472;2023-04-03T17:19:10;10.70;62.70
17887;DHT22;9069;52.044;7.472;2023-04-03T17:21:38;10.70;63.30
17887;DHT22;9069;52.044;7.472;2023-04-03T17:24:06;10.70;62.40
17887;DHT22;9069;52.044;7.472;2023-04-03T17:26:35;10.60;62.00
17887;DHT22;9069;52.044;7.472;2023-04-03T17:29:03;10.60;62.20
17887;DHT22;9069;52.044;7.472;2023-04-03T17:31:30;10.60;62.10
17887;DHT22;9069;52.044;7.472;2023-04-03T17:33:57;10.60;62.60
17887;DHT22;9069;52.044;7.472;2023-04-03T17:36:31;10.50;62.40
17887;DHT22;9069;52.044;7.472;2023-04-03T17:38:58;10.50;62.20
17887;DHT22;9069;52.044;7.472;2023-04-03T17:41:25;10.50;62.80
17887;DHT22;9069;52.044;7.472;2023-04-03T17:43:52;10.40;63.30
17887;DHT22;9069;52.044;7.472;2023-04-03T17:46:22;10.40;63.60
17887;DHT22;9069;52.044;7.472;2023-04-03T17:48:50;10.40;63.90
17887;DHT22;9069;52.044;7.472;2023-04-03T17:51:20;10.30;63.70
17887;DHT22;9069;52.044;7.472;2023-04-03T17:53:47;10.30;63.30
17887;DHT22;9069;52.044;7.472;2023-04-03T17:56:19;10.30;63.70
17887;DHT22;9069;52.044;7.472;2023-04-03T17:58:48;10.20;63.60
17887;DHT22;9069;52.044;7.472;2023-04-03T18:01:21;10.20;64.10
17887;DHT22;9069;52.044;7.472;2023-04-03T18:03:51;10.20;64.50
17887;DHT22;9069;52.044;7.472;2023-04-03T18:06:21;10.20;64.40